createdAt,value
2016-10-22T00:00:02.234Z,10.37
2016-10-22T00:01:02.256Z,10.31
2016-10-22T00:02:02.269Z,10.28
2016-10-22T00:03:02.280Z,10.33
2016-10-22T00:04:02.297Z,10.4
2016-10-22T00:05:02.313Z,10.37
2016-10-22T00:06:02.333Z,10.3
2016-10-22T00:07:02.343Z,10.41
2016-10-22T00:08:02.397Z,10.4
2016-10-22T00:09:02.381Z,10.37
2016-10-22T00:10:02.397Z,10.37
2016-10-22T00:11:02.419Z,10.35
2016-10-22T00:12:02.440Z,10.3
2016-10-22T00:13:02.447Z,10.26
2016-10-22T00:14:02.464Z,10.33
2016-10-22T00:15:02.474Z,10.34
2016-10-22T00:16:02.493Z,10.34
2016-10-22T00:17:02.505Z,10.33
2016-10-22T00:18:02.529Z,10.34
2016-10-22T00:19:02.538Z,10.3
2016-10-22T00:20:02.567Z,10.34
2016-10-22T00:21:02.574Z,10.31
2016-10-22T00:22:02.591Z,10.33
2016-10-22T00:23:02.607Z,10.28
2016-10-22T00:24:02.623Z,10.33
2016-10-22T00:25:02.636Z,10.35
2016-10-22T00:26:02.652Z,10.37
2016-10-22T00:27:02.665Z,10.33
2016-10-22T00:28:02.697Z,10.34
2016-10-22T00:29:02.739Z,10.33
2016-10-22T00:30:02.734Z,10.38
2016-10-22T00:31:02.738Z,10.28
2016-10-22T00:32:02.751Z,10.31
2016-10-22T00:33:02.764Z,10.26
2016-10-22T00:34:02.805Z,10.33
2016-10-22T00:35:02.800Z,10.26
2016-10-22T00:36:02.835Z,10.3
2016-10-22T00:37:02.836Z,10.31
2016-10-22T00:38:02.846Z,10.28
2016-10-22T00:39:02.870Z,10.28
2016-10-22T00:40:02.887Z,10.31
2016-10-22T00:41:02.900Z,10.35
2016-10-22T00:42:02.930Z,10.33
2016-10-22T00:43:02.928Z,10.28
2016-10-22T00:44:02.947Z,10.26
2016-10-22T00:45:02.959Z,10.34
2016-10-22T00:46:02.976Z,10.4
2016-10-22T00:47:02.995Z,10.28
2016-10-22T00:48:03.021Z,10.3
2016-10-22T00:49:03.020Z,10.28
2016-10-22T00:50:03.049Z,10.31
2016-10-22T00:51:03.060Z,10.26
2016-10-22T00:52:03.389Z,10.34
2016-10-22T00:53:03.098Z,10.25
2016-10-22T00:54:03.102Z,10.25
2016-10-22T00:55:03.115Z,10.3
2016-10-22T00:56:03.113Z,10.3
2016-10-22T00:57:03.135Z,10.34
2016-10-22T00:58:03.157Z,10.33
2016-10-22T00:59:03.158Z,10.25
2016-10-22T01:00:03.170Z,10.28
2016-10-22T01:01:03.197Z,10.3
2016-10-22T01:02:03.216Z,10.31
2016-10-22T01:03:03.232Z,10.25
2016-10-22T01:04:03.258Z,10.26
2016-10-22T01:05:03.255Z,10.23
2016-10-22T01:06:03.282Z,10.22
2016-10-22T01:07:03.287Z,10.23
2016-10-22T01:08:03.314Z,10.3
2016-10-22T01:09:03.332Z,10.33
2016-10-22T01:10:03.365Z,10.28
2016-10-22T01:11:03.369Z,10.28
2016-10-22T01:12:03.383Z,10.26
2016-10-22T01:13:03.375Z,10.25
2016-10-22T01:14:03.398Z,10.25
2016-10-22T01:15:03.428Z,10.28
2016-10-22T01:16:03.441Z,10.25
2016-10-22T01:17:03.446Z,10.31
2016-10-22T01:18:03.488Z,10.17
2016-10-22T01:19:03.489Z,10.25
2016-10-22T01:20:03.501Z,10.31
2016-10-22T01:21:03.516Z,10.25
2016-10-22T01:22:03.867Z,10.25
2016-10-22T01:23:03.559Z,10.2
2016-10-22T01:24:03.559Z,10.26
2016-10-22T01:25:03.587Z,10.23
2016-10-22T01:26:03.607Z,10.26
2016-10-22T01:27:03.603Z,10.28
2016-10-22T01:28:03.667Z,10.28
2016-10-22T01:29:03.650Z,10.23
2016-10-22T01:30:03.653Z,10.25
2016-10-22T01:31:03.682Z,10.28
2016-10-22T01:32:03.690Z,10.28
2016-10-22T01:33:03.711Z,10.26
2016-10-22T01:34:03.737Z,10.25
2016-10-22T01:35:03.743Z,10.26
2016-10-22T01:36:03.757Z,10.28
2016-10-22T01:37:03.779Z,10.28
2016-10-22T01:38:03.799Z,10.3
2016-10-22T01:39:03.813Z,10.26
2016-10-22T01:40:03.825Z,10.22
2016-10-22T01:41:03.833Z,10.26
2016-10-22T01:42:03.863Z,10.23
2016-10-22T01:43:03.867Z,10.2
2016-10-22T01:44:03.880Z,10.2
2016-10-22T01:45:03.900Z,10.3
2016-10-22T01:46:03.921Z,10.3
2016-10-22T01:47:03.925Z,10.19
2016-10-22T01:48:03.952Z,10.26
2016-10-22T01:49:03.961Z,10.2
2016-10-22T01:50:03.992Z,10.25
2016-10-22T01:51:04.003Z,10.17
2016-10-22T01:52:04.011Z,10.13
2016-10-22T01:53:04.032Z,10.16
2016-10-22T01:54:04.060Z,10.09
2016-10-22T01:55:04.098Z,10.12
2016-10-22T01:56:04.089Z,10.17
2016-10-22T01:57:04.092Z,10.13
2016-10-22T01:58:04.144Z,10.19
2016-10-22T01:59:04.124Z,10.17
2016-10-22T02:00:04.143Z,10.16
2016-10-22T02:01:04.160Z,10.15
2016-10-22T02:02:04.178Z,10.17
2016-10-22T02:03:04.188Z,10.15
2016-10-22T02:04:04.514Z,10.12
2016-10-22T02:05:04.229Z,10.1
2016-10-22T02:06:04.230Z,10.15
2016-10-22T02:07:04.252Z,10.09
2016-10-22T02:08:04.267Z,10.09
2016-10-22T02:09:04.291Z,10.05
2016-10-22T02:10:04.309Z,10.13
2016-10-22T02:11:04.316Z,10.09
2016-10-22T02:12:04.332Z,10.05
2016-10-22T02:13:04.352Z,10.01
2016-10-22T02:14:04.367Z,10.1
2016-10-22T02:15:04.394Z,10.01
2016-10-22T02:16:04.401Z,10.04
2016-10-22T02:17:04.412Z,10.04
2016-10-22T02:18:04.433Z,10.02
2016-10-22T02:19:04.445Z,9.97
2016-10-22T02:20:04.456Z,9.98
2016-10-22T02:21:04.481Z,9.99
2016-10-22T02:22:04.496Z,10.01
2016-10-22T02:23:04.504Z,9.97
2016-10-22T02:24:04.523Z,9.94
2016-10-22T02:25:04.542Z,9.94
2016-10-22T02:26:04.885Z,9.98
2016-10-22T02:27:04.580Z,9.98
2016-10-22T02:28:04.594Z,9.94
2016-10-22T02:29:04.614Z,9.94
2016-10-22T02:30:04.616Z,9.95
2016-10-22T02:31:04.637Z,9.92
2016-10-22T02:32:04.663Z,9.95
2016-10-22T02:33:04.671Z,9.97
2016-10-22T02:34:04.679Z,9.95
2016-10-22T02:35:04.700Z,9.92
2016-10-22T02:36:04.715Z,9.97
2016-10-22T02:37:04.737Z,9.89
2016-10-22T02:38:04.762Z,9.91
2016-10-22T02:39:04.764Z,9.91
2016-10-22T02:40:04.796Z,9.89
2016-10-22T02:41:04.787Z,9.84
2016-10-22T02:42:04.813Z,9.82
2016-10-22T02:43:04.823Z,9.87
2016-10-22T02:44:04.845Z,9.92
2016-10-22T02:45:04.858Z,9.8
2016-10-22T02:46:04.891Z,9.84
2016-10-22T02:47:04.896Z,9.89
2016-10-22T02:48:04.920Z,9.79
2016-10-22T02:49:04.920Z,9.82
2016-10-22T02:50:04.934Z,9.89
2016-10-22T02:51:04.952Z,9.87
2016-10-22T02:52:04.961Z,9.82
2016-10-22T02:53:04.985Z,9.86
2016-10-22T02:54:05.015Z,9.8
2016-10-22T02:55:05.019Z,9.82
2016-10-22T02:56:05.075Z,9.82
2016-10-22T02:57:05.043Z,9.84
2016-10-22T02:58:05.067Z,9.87
2016-10-22T02:59:05.080Z,9.83
2016-10-22T03:00:05.105Z,9.82
2016-10-22T03:01:05.116Z,9.8
2016-10-22T03:02:05.131Z,9.82
2016-10-22T03:03:05.136Z,9.84
2016-10-22T03:04:05.176Z,9.84
2016-10-22T03:05:05.169Z,9.83
2016-10-22T03:06:05.194Z,9.83
2016-10-22T03:07:05.202Z,9.82
2016-10-22T03:08:05.241Z,9.84
2016-10-22T03:09:05.236Z,9.82
2016-10-22T03:10:05.262Z,9.8
2016-10-22T03:11:05.271Z,9.79
2016-10-22T03:12:05.286Z,9.84
2016-10-22T03:13:05.304Z,9.82
2016-10-22T03:14:05.327Z,9.83
2016-10-22T03:15:05.334Z,9.86
2016-10-22T03:16:05.370Z,9.84
2016-10-22T03:17:05.359Z,9.76
2016-10-22T03:18:05.386Z,9.76
2016-10-22T03:19:05.395Z,9.76
2016-10-22T03:20:05.419Z,9.8
2016-10-22T03:21:05.439Z,9.79
2016-10-22T03:22:05.450Z,9.83
2016-10-22T03:23:05.458Z,9.79
2016-10-22T03:24:05.548Z,9.84
2016-10-22T03:25:05.496Z,9.82
2016-10-22T03:26:05.511Z,9.73
2016-10-22T03:27:05.525Z,9.82
2016-10-22T03:28:05.545Z,9.73
2016-10-22T03:29:05.569Z,9.8
2016-10-22T03:30:05.580Z,9.73
2016-10-22T03:31:05.586Z,9.79
2016-10-22T03:32:05.601Z,9.82
2016-10-22T03:33:05.620Z,9.76
2016-10-22T03:34:05.642Z,9.79
2016-10-22T03:35:05.650Z,9.77
2016-10-22T03:36:05.988Z,9.76
2016-10-22T03:37:05.719Z,9.77
2016-10-22T03:38:05.708Z,9.74
2016-10-22T03:39:05.709Z,9.68
2016-10-22T03:40:05.741Z,9.76
2016-10-22T03:41:05.793Z,9.79
2016-10-22T03:42:05.763Z,9.77
2016-10-22T03:43:05.779Z,9.87
2016-10-22T03:44:05.815Z,9.79
2016-10-22T03:45:05.812Z,9.73
2016-10-22T03:46:05.829Z,9.76
2016-10-22T03:47:05.855Z,9.72
2016-10-22T03:48:05.859Z,9.74
2016-10-22T03:49:05.870Z,9.82
2016-10-22T03:50:06.201Z,9.69
2016-10-22T03:51:05.906Z,9.79
2016-10-22T03:52:05.954Z,9.76
2016-10-22T03:53:05.935Z,9.74
2016-10-22T03:54:05.975Z,9.79
2016-10-22T03:55:05.970Z,9.8
2016-10-22T03:56:05.991Z,9.76
2016-10-22T03:57:05.994Z,9.73
2016-10-22T03:58:06.018Z,9.76
2016-10-22T03:59:06.343Z,9.74
2016-10-22T04:00:06.059Z,9.76
2016-10-22T04:01:06.062Z,9.76
2016-10-22T04:02:06.081Z,9.72
2016-10-22T04:03:06.101Z,9.79
2016-10-22T04:04:06.114Z,9.76
2016-10-22T04:05:06.128Z,9.65
2016-10-22T04:06:06.144Z,9.73
2016-10-22T04:07:06.469Z,9.74
2016-10-22T04:08:06.176Z,9.72
2016-10-22T04:09:06.183Z,9.69
2016-10-22T04:10:06.245Z,9.76
2016-10-22T04:11:06.220Z,9.65
2016-10-22T04:12:06.244Z,9.65
2016-10-22T04:13:06.252Z,9.74
2016-10-22T04:14:06.273Z,9.73
2016-10-22T04:15:06.284Z,9.72
2016-10-22T04:16:06.307Z,9.69
2016-10-22T04:17:06.324Z,9.86
2016-10-22T04:18:06.652Z,9.68
2016-10-22T04:19:06.343Z,9.69
2016-10-22T04:20:06.369Z,9.86
2016-10-22T04:21:06.380Z,9.72
2016-10-22T04:22:06.396Z,9.65
2016-10-22T04:23:06.406Z,9.74
2016-10-22T04:24:06.445Z,9.72
2016-10-22T04:25:06.448Z,9.69
2016-10-22T04:26:06.459Z,9.8
2016-10-22T04:27:06.785Z,9.65
2016-10-22T04:28:06.484Z,9.69
2016-10-22T04:29:06.504Z,9.68
2016-10-22T04:30:06.517Z,9.82
2016-10-22T04:31:06.546Z,9.66
2016-10-22T04:32:06.555Z,9.65
2016-10-22T04:33:06.568Z,9.83
2016-10-22T04:34:06.589Z,9.77
2016-10-22T04:35:06.606Z,9.64
2016-10-22T04:36:06.611Z,9.66
2016-10-22T04:37:06.632Z,9.65
2016-10-22T04:38:06.655Z,9.64
2016-10-22T04:39:06.659Z,9.64
2016-10-22T04:40:07.003Z,9.77
2016-10-22T04:41:06.689Z,9.68
2016-10-22T04:42:06.720Z,9.76
2016-10-22T04:43:07.035Z,9.76
2016-10-22T04:44:06.737Z,9.77
2016-10-22T04:45:06.765Z,9.83
2016-10-22T04:46:06.782Z,9.66
2016-10-22T04:47:06.791Z,9.79
2016-10-22T04:48:06.803Z,9.8
2016-10-22T04:49:06.816Z,9.76
2016-10-22T04:50:06.835Z,9.79
2016-10-22T04:51:06.860Z,9.72
2016-10-22T04:52:06.865Z,9.65
2016-10-22T04:53:06.882Z,9.76
2016-10-22T04:54:06.914Z,9.62
2016-10-22T04:55:06.906Z,9.72
2016-10-22T04:56:06.943Z,9.77
2016-10-22T04:57:06.992Z,9.79
2016-10-22T04:58:06.962Z,9.69
2016-10-22T04:59:07.298Z,9.76
2016-10-22T05:00:06.996Z,9.8
2016-10-22T05:01:07.014Z,9.77
2016-10-22T05:02:07.029Z,9.77
2016-10-22T05:03:07.037Z,9.68
2016-10-22T05:04:07.063Z,9.72
2016-10-22T05:05:07.075Z,9.65
2016-10-22T05:06:07.088Z,9.8
2016-10-22T05:07:07.104Z,9.64
2016-10-22T05:08:07.429Z,9.83
2016-10-22T05:09:07.141Z,9.73
2016-10-22T05:10:07.150Z,9.69
2016-10-22T05:11:07.163Z,9.76
2016-10-22T05:12:07.186Z,9.65
2016-10-22T05:13:07.197Z,9.79
2016-10-22T05:14:07.219Z,9.77
2016-10-22T05:15:07.230Z,9.61
2016-10-22T05:16:07.265Z,9.8
2016-10-22T05:17:07.265Z,9.69
2016-10-22T05:18:07.296Z,9.66
2016-10-22T05:19:07.301Z,9.82
2016-10-22T05:20:07.310Z,9.64
2016-10-22T05:21:07.321Z,9.79
2016-10-22T05:22:07.339Z,9.8
2016-10-22T05:23:07.365Z,9.77
2016-10-22T05:24:07.370Z,9.68
2016-10-22T05:25:07.385Z,9.8
2016-10-22T05:26:07.399Z,9.86
2016-10-22T05:27:07.448Z,9.79
2016-10-22T05:28:07.439Z,9.77
2016-10-22T05:29:07.449Z,9.65
2016-10-22T05:30:07.489Z,9.65
2016-10-22T05:31:07.676Z,9.66
2016-10-22T05:32:07.497Z,9.66
2016-10-22T05:33:07.516Z,9.68
2016-10-22T05:34:07.535Z,9.69
2016-10-22T05:35:07.556Z,9.64
2016-10-22T05:36:07.562Z,9.69
2016-10-22T05:37:07.618Z,9.69
2016-10-22T05:38:07.605Z,9.69
2016-10-22T05:39:07.610Z,9.77
2016-10-22T05:40:07.756Z,9.65
2016-10-22T05:41:07.634Z,9.74
2016-10-22T05:42:07.648Z,9.72
2016-10-22T05:43:07.665Z,9.74
2016-10-22T05:44:07.688Z,9.62
2016-10-22T05:45:07.699Z,9.65
2016-10-22T05:46:07.724Z,9.74
2016-10-22T05:47:07.742Z,9.72
2016-10-22T05:48:07.744Z,9.77
2016-10-22T05:49:07.759Z,9.72
2016-10-22T05:50:07.791Z,9.66
2016-10-22T05:51:07.834Z,9.76
2016-10-22T05:52:07.814Z,9.74
2016-10-22T05:53:07.824Z,9.72
2016-10-22T05:54:07.849Z,9.68
2016-10-22T05:55:07.863Z,9.77
2016-10-22T05:56:07.877Z,9.72
2016-10-22T05:57:07.884Z,9.74
2016-10-22T05:58:07.921Z,9.74
2016-10-22T05:59:07.927Z,9.73
2016-10-22T06:00:07.929Z,9.73
2016-10-22T06:01:07.954Z,9.72
2016-10-22T06:02:07.968Z,9.77
2016-10-22T06:03:07.984Z,9.72
2016-10-22T06:04:07.997Z,9.77
2016-10-22T06:05:08.013Z,9.66
2016-10-22T06:06:08.040Z,9.74
2016-10-22T06:07:08.043Z,9.79
2016-10-22T06:08:08.065Z,9.73
2016-10-22T06:09:08.081Z,9.74
2016-10-22T06:10:08.090Z,9.76
2016-10-22T06:11:08.119Z,9.76
2016-10-22T06:12:08.124Z,9.76
2016-10-22T06:13:08.146Z,9.79
2016-10-22T06:14:08.175Z,9.79
2016-10-22T06:15:08.176Z,9.8
2016-10-22T06:16:08.187Z,9.76
2016-10-22T06:17:08.210Z,9.73
2016-10-22T06:18:08.219Z,9.82
2016-10-22T06:19:08.229Z,9.76
2016-10-22T06:20:08.262Z,9.76
2016-10-22T06:21:08.277Z,9.8
2016-10-22T06:22:08.603Z,9.86
2016-10-22T06:23:08.306Z,9.82
2016-10-22T06:24:08.316Z,9.73
2016-10-22T06:25:08.323Z,9.76
2016-10-22T06:26:08.350Z,9.73
2016-10-22T06:27:08.377Z,9.79
2016-10-22T06:28:08.372Z,9.84
2016-10-22T06:29:08.512Z,9.8
2016-10-22T06:30:08.450Z,9.77
2016-10-22T06:31:08.426Z,9.74
2016-10-22T06:32:08.447Z,9.79
2016-10-22T06:33:08.455Z,9.84
2016-10-22T06:34:08.468Z,9.79
2016-10-22T06:35:08.502Z,9.73
2016-10-22T06:36:08.510Z,9.84
2016-10-22T06:37:08.525Z,9.82
2016-10-22T06:38:08.544Z,9.8
2016-10-22T06:39:08.553Z,9.8
2016-10-22T06:40:08.573Z,9.8
2016-10-22T06:41:08.580Z,9.82
2016-10-22T06:42:08.709Z,9.8
2016-10-22T06:43:08.619Z,9.82
2016-10-22T06:44:08.625Z,9.8
2016-10-22T06:45:08.676Z,9.84
2016-10-22T06:46:08.664Z,9.8
2016-10-22T06:47:08.671Z,9.86
2016-10-22T06:48:08.690Z,9.77
2016-10-22T06:49:08.707Z,9.83
2016-10-22T06:50:08.747Z,9.84
2016-10-22T06:51:08.735Z,9.79
2016-10-22T06:52:08.779Z,9.77
2016-10-22T06:53:08.773Z,9.8
2016-10-22T06:54:08.789Z,9.84
2016-10-22T06:55:08.797Z,9.83
2016-10-22T06:56:08.822Z,9.82
2016-10-22T06:57:08.848Z,9.82
2016-10-22T06:58:08.858Z,9.83
2016-10-22T06:59:08.881Z,9.87
2016-10-22T07:00:08.889Z,9.84
2016-10-22T07:01:08.896Z,9.83
2016-10-22T07:02:08.919Z,9.89
2016-10-22T07:03:08.919Z,9.82
2016-10-22T07:04:09.062Z,9.89
2016-10-22T07:05:08.959Z,9.95
2016-10-22T07:06:08.976Z,9.83
2016-10-22T07:07:08.994Z,9.83
2016-10-22T07:08:09.321Z,9.84
2016-10-22T07:09:09.026Z,9.83
2016-10-22T07:10:09.038Z,9.86
2016-10-22T07:11:09.051Z,9.92
2016-10-22T07:12:09.080Z,9.86
2016-10-22T07:13:09.095Z,9.86
2016-10-22T07:14:09.141Z,9.8
2016-10-22T07:15:09.112Z,9.89
2016-10-22T07:16:09.131Z,9.87
2016-10-22T07:17:09.158Z,9.86
2016-10-22T07:18:09.165Z,9.84
2016-10-22T07:19:09.186Z,9.91
2016-10-22T07:20:09.196Z,9.91
2016-10-22T07:21:09.205Z,9.91
2016-10-22T07:22:09.247Z,9.92
2016-10-22T07:23:09.235Z,9.91
2016-10-22T07:24:09.275Z,9.91
2016-10-22T07:25:09.278Z,9.92
2016-10-22T07:26:09.307Z,9.97
2016-10-22T07:27:09.309Z,9.92
2016-10-22T07:28:09.317Z,9.95
2016-10-22T07:29:09.336Z,9.89
2016-10-22T07:30:09.437Z,9.95
2016-10-22T07:31:09.365Z,9.94
2016-10-22T07:32:09.719Z,9.95
2016-10-22T07:33:09.395Z,9.94
2016-10-22T07:34:09.744Z,9.99
2016-10-22T07:35:09.487Z,9.94
2016-10-22T07:36:09.468Z,9.99
2016-10-22T07:37:09.457Z,9.97
2016-10-22T07:38:09.486Z,9.99
2016-10-22T07:39:09.551Z,9.95
2016-10-22T07:40:09.517Z,9.95
2016-10-22T07:41:09.523Z,10.09
2016-10-22T07:42:09.543Z,10.02
2016-10-22T07:43:09.588Z,10.09
2016-10-22T07:44:09.595Z,10.16
2016-10-22T07:45:09.587Z,10.07
2016-10-22T07:46:09.618Z,10.13
2016-10-22T07:47:09.625Z,10.16
2016-10-22T07:48:09.641Z,10.09
2016-10-22T07:49:09.648Z,10.17
2016-10-22T07:50:09.671Z,10.12
2016-10-22T07:51:09.679Z,10.15
2016-10-22T07:52:09.705Z,10.1
2016-10-22T07:53:09.722Z,10.09
2016-10-22T07:54:09.743Z,10.1
2016-10-22T07:55:09.749Z,10.12
2016-10-22T07:56:09.801Z,10.2
2016-10-22T07:57:09.778Z,10.28
2016-10-22T07:58:09.797Z,10.19
2016-10-22T07:59:10.125Z,10.23
2016-10-22T08:00:09.832Z,10.19
2016-10-22T08:01:09.850Z,10.26
2016-10-22T08:02:09.857Z,10.23
2016-10-22T08:03:09.882Z,10.25
2016-10-22T08:04:09.907Z,10.23
2016-10-22T08:05:09.944Z,10.23
2016-10-22T08:06:09.948Z,10.31
2016-10-22T08:07:09.932Z,10.34
2016-10-22T08:08:09.963Z,10.26
2016-10-22T08:09:09.968Z,10.34
2016-10-22T08:10:09.997Z,10.31
2016-10-22T08:11:10.003Z,10.41
2016-10-22T08:12:10.036Z,10.38
2016-10-22T08:13:10.059Z,10.31
2016-10-22T08:14:10.062Z,10.38
2016-10-22T08:15:10.077Z,10.28
2016-10-22T08:16:10.076Z,10.3
2016-10-22T08:17:10.105Z,10.4
2016-10-22T08:18:10.135Z,10.26
2016-10-22T08:19:10.138Z,10.4
2016-10-22T08:20:10.155Z,10.4
2016-10-22T08:21:10.199Z,10.35
2016-10-22T08:22:10.262Z,10.44
2016-10-22T08:23:10.229Z,10.41
2016-10-22T08:24:10.240Z,10.4
2016-10-22T08:25:10.227Z,10.42
2016-10-22T08:26:10.273Z,10.42
2016-10-22T08:27:10.269Z,10.4
2016-10-22T08:28:10.295Z,10.46
2016-10-22T08:29:10.300Z,10.53
2016-10-22T08:30:10.353Z,10.44
2016-10-22T08:31:10.338Z,10.46
2016-10-22T08:32:10.386Z,10.41
2016-10-22T08:33:10.366Z,10.54
2016-10-22T08:34:10.383Z,10.57
2016-10-22T08:35:10.420Z,10.51
2016-10-22T08:36:10.416Z,10.57
2016-10-22T08:37:10.484Z,10.59
2016-10-22T08:38:10.479Z,10.59
2016-10-22T08:39:10.474Z,10.61
2016-10-22T08:40:10.490Z,10.56
2016-10-22T08:41:10.499Z,10.63
2016-10-22T08:42:10.501Z,10.49
2016-10-22T08:43:10.525Z,10.53
2016-10-22T08:44:10.601Z,10.6
2016-10-22T08:45:10.562Z,10.61
2016-10-22T08:46:10.585Z,10.63
2016-10-22T08:47:10.585Z,10.68
2016-10-22T08:48:10.621Z,10.67
2016-10-22T08:49:10.616Z,10.59
2016-10-22T08:50:10.669Z,10.67
2016-10-22T08:51:10.648Z,10.63
2016-10-22T08:52:10.667Z,10.64
2016-10-22T08:53:10.692Z,10.57
2016-10-22T08:54:10.705Z,10.69
2016-10-22T08:55:10.717Z,10.63
2016-10-22T08:56:10.745Z,10.63
2016-10-22T08:57:10.763Z,10.68
2016-10-22T08:58:10.768Z,10.64
2016-10-22T08:59:11.017Z,10.64
2016-10-22T09:00:10.837Z,10.68
2016-10-22T09:01:10.859Z,10.63
2016-10-22T09:02:10.901Z,10.74
2016-10-22T09:03:10.862Z,10.71
2016-10-22T09:04:10.876Z,10.69
2016-10-22T09:05:10.885Z,10.72
2016-10-22T09:06:10.901Z,10.69
2016-10-22T09:07:10.912Z,10.75
2016-10-22T09:08:10.931Z,10.67
2016-10-22T09:09:10.990Z,10.79
2016-10-22T09:10:10.982Z,10.74
2016-10-22T09:11:10.981Z,10.74
2016-10-22T09:12:11.014Z,10.75
2016-10-22T09:13:11.006Z,10.78
2016-10-22T09:14:11.026Z,10.75
2016-10-22T09:15:11.039Z,10.75
2016-10-22T09:16:11.071Z,10.76
2016-10-22T09:17:11.093Z,10.72
2016-10-22T09:18:11.097Z,10.76
2016-10-22T09:19:11.119Z,10.74
2016-10-22T09:20:11.124Z,10.74
2016-10-22T09:21:11.177Z,10.79
2016-10-22T09:22:11.162Z,10.79
2016-10-22T09:23:11.197Z,10.81
2016-10-22T09:24:11.198Z,10.79
2016-10-22T09:25:11.200Z,10.82
2016-10-22T09:26:11.273Z,10.81
2016-10-22T09:27:11.244Z,10.9
2016-10-22T09:28:11.888Z,10.9
2016-10-22T09:29:11.274Z,10.86
2016-10-22T09:30:11.288Z,10.9
2016-10-22T09:31:11.311Z,10.94
2016-10-22T09:32:11.330Z,10.94
2016-10-22T09:33:11.347Z,10.93
2016-10-22T09:34:11.405Z,10.87
2016-10-22T09:35:11.372Z,10.92
2016-10-22T09:36:11.399Z,10.94
2016-10-22T09:37:11.406Z,10.96
2016-10-22T09:38:11.437Z,10.89
2016-10-22T09:39:11.433Z,10.96
2016-10-22T09:40:11.449Z,10.96
2016-10-22T09:41:11.476Z,10.94
2016-10-22T09:42:11.488Z,10.9
2016-10-22T09:43:11.545Z,10.9
2016-10-22T09:44:11.526Z,10.9
2016-10-22T09:45:11.534Z,10.93
2016-10-22T09:46:11.553Z,10.96
2016-10-22T09:47:11.571Z,10.99
2016-10-22T09:48:11.587Z,10.96
2016-10-22T09:49:11.608Z,11
2016-10-22T09:50:11.631Z,10.99
2016-10-22T09:51:11.641Z,10.99
2016-10-22T09:52:11.763Z,10.89
2016-10-22T09:53:11.861Z,11
2016-10-22T09:54:11.694Z,11
2016-10-22T09:55:11.691Z,11.04
2016-10-22T09:56:11.717Z,10.99
2016-10-22T09:57:11.742Z,10.99
2016-10-22T09:58:11.752Z,11
2016-10-22T09:59:11.760Z,11.1
2016-10-22T10:00:11.903Z,11.07
2016-10-22T10:01:11.808Z,11.1
2016-10-22T10:02:11.816Z,11.14
2016-10-22T10:03:11.832Z,11.15
2016-10-22T10:04:11.860Z,11.15
2016-10-22T10:05:11.876Z,11.15
2016-10-22T10:06:12.189Z,11.17
2016-10-22T10:07:12.071Z,11.22
2016-10-22T10:08:12.322Z,11.22
2016-10-22T10:09:11.930Z,11.27
2016-10-22T10:10:11.946Z,11.29
2016-10-22T10:11:11.971Z,11.3
2016-10-22T10:12:11.984Z,11.25
2016-10-22T10:13:11.995Z,11.33
2016-10-22T10:14:12.062Z,11.35
2016-10-22T10:15:12.034Z,11.36
2016-10-22T10:16:12.049Z,11.4
2016-10-22T10:17:12.066Z,11.41
2016-10-22T10:18:12.088Z,11.44
2016-10-22T10:19:12.217Z,11.47
2016-10-22T10:20:12.112Z,11.47
2016-10-22T10:21:12.152Z,11.44
2016-10-22T10:22:12.375Z,11.47
2016-10-22T10:23:12.250Z,11.45
2016-10-22T10:24:12.257Z,11.47
2016-10-22T10:25:12.200Z,11.52
2016-10-22T10:26:12.275Z,11.52
2016-10-22T10:27:12.271Z,11.66
2016-10-22T10:28:12.282Z,11.62
2016-10-22T10:29:12.449Z,11.63
2016-10-22T10:30:12.298Z,11.65
2016-10-22T10:31:12.301Z,11.66
2016-10-22T10:32:12.316Z,11.69
2016-10-22T10:33:12.334Z,11.73
2016-10-22T10:34:12.388Z,11.72
2016-10-22T10:35:12.369Z,11.73
2016-10-22T10:36:12.381Z,11.69
2016-10-22T10:37:12.419Z,11.75
2016-10-22T10:38:12.430Z,11.72
2016-10-22T10:39:12.432Z,11.72
2016-10-22T10:40:12.457Z,11.81
2016-10-22T10:41:12.466Z,11.68
2016-10-22T10:42:12.494Z,11.84
2016-10-22T10:43:12.496Z,11.87
2016-10-22T10:44:12.528Z,11.9
2016-10-22T10:45:12.548Z,11.84
2016-10-22T10:46:12.559Z,11.9
2016-10-22T10:47:12.565Z,11.81
2016-10-22T10:48:12.599Z,11.97
2016-10-22T10:49:12.615Z,11.86
2016-10-22T10:50:12.658Z,11.94
2016-10-22T10:51:12.637Z,11.94
2016-10-22T10:52:12.663Z,12.02
2016-10-22T10:53:12.670Z,11.99
2016-10-22T10:54:12.712Z,12.02
2016-10-22T10:55:12.739Z,11.97
2016-10-22T10:56:12.728Z,12.06
2016-10-22T10:57:12.737Z,11.97
2016-10-22T10:58:12.766Z,11.97
2016-10-22T10:59:13.010Z,12.13
2016-10-22T11:00:12.790Z,12.09
2016-10-22T11:01:12.816Z,11.99
2016-10-22T11:02:12.823Z,12.17
2016-10-22T11:03:12.883Z,12.06
2016-10-22T11:04:12.858Z,11.99
2016-10-22T11:05:12.887Z,12.04
2016-10-22T11:06:12.924Z,12.07
2016-10-22T11:07:12.930Z,11.99
2016-10-22T11:08:12.937Z,11.94
2016-10-22T11:09:12.953Z,12.06
2016-10-22T11:10:12.975Z,11.99
2016-10-22T11:11:13.350Z,12.03
2016-10-22T11:12:13.007Z,12.04
2016-10-22T11:13:13.019Z,11.99
2016-10-22T11:14:13.044Z,11.88
2016-10-22T11:15:13.374Z,11.97
2016-10-22T11:16:13.080Z,11.91
2016-10-22T11:17:13.101Z,11.86
2016-10-22T11:18:13.109Z,11.87
2016-10-22T11:19:13.119Z,11.91
2016-10-22T11:20:13.140Z,11.91
2016-10-22T11:21:13.170Z,11.94
2016-10-22T11:22:13.188Z,11.86
2016-10-22T11:23:13.190Z,11.9
2016-10-22T11:24:13.204Z,11.97
2016-10-22T11:25:13.546Z,11.9
2016-10-22T11:26:13.247Z,11.9
2016-10-22T11:27:13.252Z,11.87
2016-10-22T11:28:13.276Z,11.88
2016-10-22T11:29:13.303Z,11.81
2016-10-22T11:30:13.318Z,11.99
2016-10-22T11:31:13.333Z,11.83
2016-10-22T11:32:13.346Z,11.88
2016-10-22T11:33:13.363Z,11.95
2016-10-22T11:34:13.387Z,11.94
2016-10-22T11:35:13.404Z,11.9
2016-10-22T11:36:13.423Z,11.9
2016-10-22T11:37:13.432Z,11.81
2016-10-22T11:38:13.454Z,11.86
2016-10-22T11:39:13.459Z,11.86
2016-10-22T11:40:13.483Z,11.87
2016-10-22T11:41:13.504Z,11.86
2016-10-22T11:42:13.524Z,11.87
2016-10-22T11:43:13.532Z,11.78
2016-10-22T11:44:13.564Z,11.86
2016-10-22T11:45:13.571Z,11.88
2016-10-22T11:46:13.584Z,11.83
2016-10-22T11:47:13.607Z,11.88
2016-10-22T11:48:13.625Z,11.69
2016-10-22T11:49:13.640Z,11.83
2016-10-22T11:50:13.664Z,11.83
2016-10-22T11:51:13.674Z,11.7
2016-10-22T11:52:14.014Z,11.72
2016-10-22T11:53:13.709Z,11.75
2016-10-22T11:54:13.737Z,11.77
2016-10-22T11:55:13.743Z,11.78
2016-10-22T11:56:13.775Z,11.68
2016-10-22T11:57:13.780Z,11.8
2016-10-22T11:58:13.809Z,11.73
2016-10-22T11:59:13.838Z,11.77
2016-10-22T12:00:13.866Z,11.72
2016-10-22T12:01:13.861Z,11.69
2016-10-22T12:02:13.886Z,11.83
2016-10-22T12:03:13.884Z,11.83
2016-10-22T12:04:13.889Z,11.84
2016-10-22T12:05:13.914Z,11.84
2016-10-22T12:06:13.929Z,11.87
2016-10-22T12:07:13.949Z,11.94
2016-10-22T12:08:13.970Z,11.9
2016-10-22T12:09:13.983Z,11.86
2016-10-22T12:10:14.002Z,11.87
2016-10-22T12:11:14.018Z,11.88
2016-10-22T12:12:14.034Z,11.83
2016-10-22T12:13:14.056Z,11.87
2016-10-22T12:14:14.070Z,11.88
2016-10-22T12:15:14.086Z,11.87
2016-10-22T12:16:14.106Z,11.86
2016-10-22T12:17:14.122Z,11.86
2016-10-22T12:18:14.134Z,11.84
2016-10-22T12:19:14.182Z,11.77
2016-10-22T12:20:14.172Z,11.87
2016-10-22T12:21:14.186Z,11.73
2016-10-22T12:22:14.204Z,11.7
2016-10-22T12:23:14.214Z,11.75
2016-10-22T12:24:14.239Z,11.72
2016-10-22T12:25:14.259Z,11.77
2016-10-22T12:26:14.266Z,11.77
2016-10-22T12:27:14.291Z,11.8
2016-10-22T12:28:14.314Z,11.77
2016-10-22T12:29:14.326Z,11.7
2016-10-22T12:30:14.353Z,11.72
2016-10-22T12:31:14.363Z,11.73
2016-10-22T12:32:14.385Z,11.77
2016-10-22T12:33:14.390Z,11.77
2016-10-22T12:34:14.416Z,11.75
2016-10-22T12:35:14.428Z,11.75
2016-10-22T12:36:14.437Z,11.73
2016-10-22T12:37:14.464Z,11.72
2016-10-22T12:38:14.517Z,11.63
2016-10-22T12:39:14.544Z,11.75
2016-10-22T12:40:14.520Z,11.77
2016-10-22T12:41:14.532Z,11.7
2016-10-22T12:42:14.551Z,11.7
2016-10-22T12:43:14.572Z,11.63
2016-10-22T12:44:14.590Z,11.73
2016-10-22T12:45:14.598Z,11.72
2016-10-22T12:46:14.623Z,11.69
2016-10-22T12:47:14.635Z,11.77
2016-10-22T12:48:14.667Z,11.75
2016-10-22T12:49:14.659Z,11.72
2016-10-22T12:50:14.690Z,11.69
2016-10-22T12:51:14.708Z,11.69
2016-10-22T12:52:14.723Z,11.72
2016-10-22T12:53:14.735Z,11.7
2016-10-22T12:54:14.759Z,11.77
2016-10-22T12:55:14.772Z,11.72
2016-10-22T12:56:14.791Z,11.68
2016-10-22T12:57:14.802Z,11.73
2016-10-22T12:58:14.821Z,11.69
2016-10-22T12:59:14.840Z,11.66
2016-10-22T13:00:14.867Z,11.7
2016-10-22T13:01:14.881Z,11.72
2016-10-22T13:02:14.923Z,11.68
2016-10-22T13:03:14.914Z,11.7
2016-10-22T13:04:14.934Z,11.7
2016-10-22T13:05:14.942Z,11.7
2016-10-22T13:06:14.961Z,11.69